sensor_id;sensor_type;location;lat;lon;timestamp;P1;durP1;ratioP1;P2;durP2;ratioP2
56319;SDS011;42226;42.382;23.748;2022-12-13T00:01:58;3.10;;;2.80;;
56319;SDS011;42226;42.382;23.748;2022-12-13T00:04:25;2.58;;;2.38;;
56319;SDS011;42226;42.382;23.748;2022-12-13T00:06:51;3.13;;;2.85;;
56319;SDS011;42226;42.382;23.748;2022-12-13T00:09:18;2.70;;;2.50;;
56319;SDS011;42226;42.382;23.748;2022-12-13T00:11:46;3.22;;;2.92;;
56319;SDS011;42226;42.382;23.748;2022-12-13T00:14:15;2.90;;;2.67;;
56319;SDS011;42226;42.382;23.748;2022-12-13T00:16:46;3.13;;;2.83;;
56319;SDS011;42226;42.382;23.748;2022-12-13T00:19:15;3.40;;;3.10;;
56319;SDS011;42226;42.382;23.748;2022-12-13T00:21:43;3.67;;;3.38;;
56319;SDS011;42226;42.382;23.748;2022-12-13T00:24:11;4.10;;;3.70;;
56319;SDS011;42226;42.382;23.748;2022-12-13T00:26:39;3.65;;;3.22;;
56319;SDS011;42226;42.382;23.748;2022-12-13T00:29:07;3.80;;;3.40;;
56319;SDS011;42226;42.382;23.748;2022-12-13T00:31:35;4.00;;;3.58;;
56319;SDS011;42226;42.382;23.748;2022-12-13T00:34:03;4.45;;;3.42;;
56319;SDS011;42226;42.382;23.748;2022-12-13T00:36:30;4.03;;;3.72;;
56319;SDS011;42226;42.382;23.748;2022-12-13T00:38:56;4.07;;;3.67;;
56319;SDS011;42226;42.382;23.748;2022-12-13T00:41:27;4.70;;;3.22;;
56319;SDS011;42226;42.382;23.748;2022-12-13T00:43:57;3.42;;;2.80;;
56319;SDS011;42226;42.382;23.748;2022-12-13T00:46:24;3.30;;;3.00;;
56319;SDS011;42226;42.382;23.748;2022-12-13T00:48:53;2.72;;;2.53;;
56319;SDS011;42226;42.382;23.748;2022-12-13T00:51:23;3.70;;;3.35;;
56319;SDS011;42226;42.382;23.748;2022-12-13T00:53:51;3.45;;;3.00;;
56319;SDS011;42226;42.382;23.748;2022-12-13T00:56:19;3.00;;;2.80;;
56319;SDS011;42226;42.382;23.748;2022-12-13T00:58:51;2.95;;;2.72;;
56319;SDS011;42226;42.382;23.748;2022-12-13T01:01:21;3.47;;;3.17;;
56319;SDS011;42226;42.382;23.748;2022-12-13T01:03:55;3.22;;;2.92;;
56319;SDS011;42226;42.382;23.748;2022-12-13T01:06:31;4.35;;;3.45;;
56319;SDS011;42226;42.382;23.748;2022-12-13T01:09:05;3.92;;;3.58;;
56319;SDS011;42226;42.382;23.748;2022-12-13T01:11:42;3.92;;;3.53;;
56319;SDS011;42226;42.382;23.748;2022-12-13T01:14:10;3.20;;;2.67;;
56319;SDS011;42226;42.382;23.748;2022-12-13T01:16:37;2.97;;;2.70;;
56319;SDS011;42226;42.382;23.748;2022-12-13T01:19:05;3.10;;;2.80;;
56319;SDS011;42226;42.382;23.748;2022-12-13T01:21:31;3.78;;;3.47;;
56319;SDS011;42226;42.382;23.748;2022-12-13T01:24:00;3.95;;;3.55;;
56319;SDS011;42226;42.382;23.748;2022-12-13T01:26:29;3.30;;;3.00;;
56319;SDS011;42226;42.382;23.748;2022-12-13T01:28:57;3.38;;;3.08;;
56319;SDS011;42226;42.382;23.748;2022-12-13T01:31:25;3.97;;;3.67;;
56319;SDS011;42226;42.382;23.748;2022-12-13T01:33:53;3.55;;;3.15;;
56319;SDS011;42226;42.382;23.748;2022-12-13T01:36:21;4.57;;;3.58;;
56319;SDS011;42226;42.382;23.748;2022-12-13T01:38:49;3.88;;;3.55;;
56319;SDS011;42226;42.382;23.748;2022-12-13T01:41:18;3.70;;;3.40;;
56319;SDS011;42226;42.382;23.748;2022-12-13T01:46:13;4.68;;;3.83;;
56319;SDS011;42226;42.382;23.748;2022-12-13T01:48:48;4.65;;;3.88;;
56319;SDS011;42226;42.382;23.748;2022-12-13T01:51:23;3.80;;;3.40;;
56319;SDS011;42226;42.382;23.748;2022-12-13T01:54:15;4.68;;;3.70;;
56319;SDS011;42226;42.382;23.748;2022-12-13T01:56:47;4.43;;;3.50;;
56319;SDS011;42226;42.382;23.748;2022-12-13T01:59:19;4.03;;;3.42;;
56319;SDS011;42226;42.382;23.748;2022-12-13T02:01:49;4.05;;;3.53;;
56319;SDS011;42226;42.382;23.748;2022-12-13T02:04:18;4.22;;;3.63;;
56319;SDS011;42226;42.382;23.748;2022-12-13T02:07:19;3.80;;;3.40;;
56319;SDS011;42226;42.382;23.748;2022-12-13T02:09:52;4.53;;;3.83;;
56319;SDS011;42226;42.382;23.748;2022-12-13T02:12:26;3.97;;;3.47;;
56319;SDS011;42226;42.382;23.748;2022-12-13T02:15:00;4.85;;;3.83;;
56319;SDS011;42226;42.382;23.748;2022-12-13T02:20:47;5.50;;;3.40;;
56319;SDS011;42226;42.382;23.748;2022-12-13T02:23:31;5.15;;;3.60;;
56319;SDS011;42226;42.382;23.748;2022-12-13T02:26:28;5.00;;;3.72;;
56319;SDS011;42226;42.382;23.748;2022-12-13T02:32:13;4.57;;;3.85;;
56319;SDS011;42226;42.382;23.748;2022-12-13T02:40:22;4.03;;;3.63;;
56319;SDS011;42226;42.382;23.748;2022-12-13T02:48:22;3.70;;;3.20;;
56319;SDS011;42226;42.382;23.748;2022-12-13T02:50:57;3.72;;;3.38;;
56319;SDS011;42226;42.382;23.748;2022-12-13T02:53:27;4.45;;;3.58;;
56319;SDS011;42226;42.382;23.748;2022-12-13T02:55:56;3.55;;;3.17;;
56319;SDS011;42226;42.382;23.748;2022-12-13T02:58:27;3.35;;;3.05;;
56319;SDS011;42226;42.382;23.748;2022-12-13T03:09:31;3.28;;;2.97;;
56319;SDS011;42226;42.382;23.748;2022-12-13T03:17:55;3.00;;;2.70;;
56319;SDS011;42226;42.382;23.748;2022-12-13T03:20:43;3.97;;;3.28;;
56319;SDS011;42226;42.382;23.748;2022-12-13T03:23:34;3.67;;;3.30;;
56319;SDS011;42226;42.382;23.748;2022-12-13T03:26:11;3.20;;;2.90;;
56319;SDS011;42226;42.382;23.748;2022-12-13T03:28:45;3.72;;;3.00;;
56319;SDS011;42226;42.382;23.748;2022-12-13T03:31:12;3.83;;;3.28;;
56319;SDS011;42226;42.382;23.748;2022-12-13T03:33:40;4.32;;;3.60;;
56319;SDS011;42226;42.382;23.748;2022-12-13T03:36:08;3.55;;;3.25;;
56319;SDS011;42226;42.382;23.748;2022-12-13T03:38:37;3.33;;;2.95;;
56319;SDS011;42226;42.382;23.748;2022-12-13T03:41:07;3.55;;;3.05;;
56319;SDS011;42226;42.382;23.748;2022-12-13T03:43:38;4.53;;;3.30;;
56319;SDS011;42226;42.382;23.748;2022-12-13T03:46:06;3.53;;;2.97;;
56319;SDS011;42226;42.382;23.748;2022-12-13T03:48:34;4.03;;;3.30;;
56319;SDS011;42226;42.382;23.748;2022-12-13T03:51:01;3.42;;;3.13;;
56319;SDS011;42226;42.382;23.748;2022-12-13T03:53:30;3.70;;;3.40;;
56319;SDS011;42226;42.382;23.748;2022-12-13T03:55:56;4.80;;;3.45;;
56319;SDS011;42226;42.382;23.748;2022-12-13T03:58:25;4.22;;;3.60;;
56319;SDS011;42226;42.382;23.748;2022-12-13T04:00:52;4.10;;;3.70;;
56319;SDS011;42226;42.382;23.748;2022-12-13T04:03:19;4.07;;;3.47;;
56319;SDS011;42226;42.382;23.748;2022-12-13T04:05:46;4.28;;;3.28;;
56319;SDS011;42226;42.382;23.748;2022-12-13T04:08:13;4.15;;;3.70;;
56319;SDS011;42226;42.382;23.748;2022-12-13T04:10:41;5.82;;;3.50;;
56319;SDS011;42226;42.382;23.748;2022-12-13T04:13:08;3.50;;;3.20;;
56319;SDS011;42226;42.382;23.748;2022-12-13T04:15:55;3.35;;;2.85;;
56319;SDS011;42226;42.382;23.748;2022-12-13T04:18:22;4.75;;;3.35;;
56319;SDS011;42226;42.382;23.748;2022-12-13T04:20:50;3.28;;;2.53;;
56319;SDS011;42226;42.382;23.748;2022-12-13T04:23:17;3.90;;;3.50;;
56319;SDS011;42226;42.382;23.748;2022-12-13T04:25:45;3.40;;;3.10;;
56319;SDS011;42226;42.382;23.748;2022-12-13T04:28:11;3.90;;;3.50;;
56319;SDS011;42226;42.382;23.748;2022-12-13T04:30:39;3.70;;;3.38;;
56319;SDS011;42226;42.382;23.748;2022-12-13T04:33:05;3.25;;;2.95;;
56319;SDS011;42226;42.382;23.748;2022-12-13T04:35:33;3.67;;;3.30;;
56319;SDS011;42226;42.382;23.748;2022-12-13T04:37:59;4.15;;;3.70;;
56319;SDS011;42226;42.382;23.748;2022-12-13T04:40:26;3.08;;;2.78;;
56319;SDS011;42226;42.382;23.748;2022-12-13T04:42:53;2.88;;;2.55;;
56319;SDS011;42226;42.382;23.748;2022-12-13T04:45:21;3.67;;;3.30;;
56319;SDS011;42226;42.382;23.748;2022-12-13T04:47:49;3.53;;;3.20;;
56319;SDS011;42226;42.382;23.748;2022-12-13T04:50:17;4.25;;;3.45;;
56319;SDS011;42226;42.382;23.748;2022-12-13T04:52:45;3.90;;;3.50;;
56319;SDS011;42226;42.382;23.748;2022-12-13T04:55:11;4.47;;;3.70;;
56319;SDS011;42226;42.382;23.748;2022-12-13T04:57:39;4.25;;;3.85;;
56319;SDS011;42226;42.382;23.748;2022-12-13T05:00:07;4.32;;;3.83;;
56319;SDS011;42226;42.382;23.748;2022-12-13T05:02:40;4.13;;;3.30;;
56319;SDS011;42226;42.382;23.748;2022-12-13T05:05:07;4.38;;;3.75;;
56319;SDS011;42226;42.382;23.748;2022-12-13T05:07:35;4.65;;;3.80;;
56319;SDS011;42226;42.382;23.748;2022-12-13T05:10:03;4.20;;;3.47;;
56319;SDS011;42226;42.382;23.748;2022-12-13T05:12:31;4.95;;;3.90;;
56319;SDS011;42226;42.382;23.748;2022-12-13T05:14:58;4.20;;;3.80;;
56319;SDS011;42226;42.382;23.748;2022-12-13T05:17:25;3.92;;;3.53;;
56319;SDS011;42226;42.382;23.748;2022-12-13T05:19:53;5.45;;;3.90;;
56319;SDS011;42226;42.382;23.748;2022-12-13T05:22:20;5.50;;;3.72;;
56319;SDS011;42226;42.382;23.748;2022-12-13T05:24:48;4.65;;;3.38;;
56319;SDS011;42226;42.382;23.748;2022-12-13T05:27:14;3.63;;;3.00;;
56319;SDS011;42226;42.382;23.748;2022-12-13T05:29:42;4.88;;;4.00;;
56319;SDS011;42226;42.382;23.748;2022-12-13T05:32:09;4.30;;;3.65;;
56319;SDS011;42226;42.382;23.748;2022-12-13T05:34:36;4.68;;;3.85;;
56319;SDS011;42226;42.382;23.748;2022-12-13T05:37:03;4.47;;;3.78;;
56319;SDS011;42226;42.382;23.748;2022-12-13T05:39:30;5.30;;;4.47;;
56319;SDS011;42226;42.382;23.748;2022-12-13T05:41:57;4.00;;;3.47;;
56319;SDS011;42226;42.382;23.748;2022-12-13T05:44:24;4.75;;;3.90;;
56319;SDS011;42226;42.382;23.748;2022-12-13T05:46:51;5.30;;;4.22;;
56319;SDS011;42226;42.382;23.748;2022-12-13T05:49:17;4.82;;;4.30;;
56319;SDS011;42226;42.382;23.748;2022-12-13T05:51:44;4.20;;;3.72;;
56319;SDS011;42226;42.382;23.748;2022-12-13T05:54:11;5.03;;;3.83;;
56319;SDS011;42226;42.382;23.748;2022-12-13T05:56:37;3.88;;;3.35;;
56319;SDS011;42226;42.382;23.748;2022-12-13T05:59:03;6.18;;;4.10;;
56319;SDS011;42226;42.382;23.748;2022-12-13T06:01:30;5.78;;;4.05;;
56319;SDS011;42226;42.382;23.748;2022-12-13T06:03:57;4.53;;;3.53;;
56319;SDS011;42226;42.382;23.748;2022-12-13T06:06:23;5.05;;;3.78;;
56319;SDS011;42226;42.382;23.748;2022-12-13T06:08:50;4.88;;;3.95;;
56319;SDS011;42226;42.382;23.748;2022-12-13T06:11:16;4.32;;;3.50;;
56319;SDS011;42226;42.382;23.748;2022-12-13T06:13:43;5.13;;;4.03;;
56319;SDS011;42226;42.382;23.748;2022-12-13T06:16:14;5.80;;;4.40;;
56319;SDS011;42226;42.382;23.748;2022-12-13T06:18:41;4.50;;;3.95;;
56319;SDS011;42226;42.382;23.748;2022-12-13T06:21:07;4.97;;;4.00;;
56319;SDS011;42226;42.382;23.748;2022-12-13T06:23:35;5.63;;;4.68;;
56319;SDS011;42226;42.382;23.748;2022-12-13T06:26:05;4.68;;;3.72;;
56319;SDS011;42226;42.382;23.748;2022-12-13T06:28:33;5.38;;;4.43;;
56319;SDS011;42226;42.382;23.748;2022-12-13T06:31:01;6.18;;;4.70;;
56319;SDS011;42226;42.382;23.748;2022-12-13T06:33:30;5.38;;;4.30;;
56319;SDS011;42226;42.382;23.748;2022-12-13T06:36:01;5.20;;;4.43;;
56319;SDS011;42226;42.382;23.748;2022-12-13T06:38:30;6.68;;;4.70;;
56319;SDS011;42226;42.382;23.748;2022-12-13T06:43:53;6.30;;;3.90;;
56319;SDS011;42226;42.382;23.748;2022-12-13T06:46:22;5.30;;;4.32;;
56319;SDS011;42226;42.382;23.748;2022-12-13T06:48:50;6.88;;;5.10;;
56319;SDS011;42226;42.382;23.748;2022-12-13T06:51:17;5.68;;;4.40;;
56319;SDS011;42226;42.382;23.748;2022-12-13T06:53:44;5.63;;;4.80;;
56319;SDS011;42226;42.382;23.748;2022-12-13T06:56:12;5.93;;;4.55;;
56319;SDS011;42226;42.382;23.748;2022-12-13T06:58:40;6.60;;;4.97;;
56319;SDS011;42226;42.382;23.748;2022-12-13T07:01:08;5.15;;;4.65;;
56319;SDS011;42226;42.382;23.748;2022-12-13T07:03:38;6.25;;;4.80;;
56319;SDS011;42226;42.382;23.748;2022-12-13T07:06:06;7.43;;;4.93;;
56319;SDS011;42226;42.382;23.748;2022-12-13T07:08:41;5.30;;;4.35;;
56319;SDS011;42226;42.382;23.748;2022-12-13T07:11:13;5.50;;;4.33;;
56319;SDS011;42226;42.382;23.748;2022-12-13T07:13:44;5.50;;;4.45;;
56319;SDS011;42226;42.382;23.748;2022-12-13T07:16:11;4.65;;;4.07;;
56319;SDS011;42226;42.382;23.748;2022-12-13T07:18:39;5.45;;;4.55;;
56319;SDS011;42226;42.382;23.748;2022-12-13T07:21:06;6.95;;;4.53;;
56319;SDS011;42226;42.382;23.748;2022-12-13T07:23:37;6.35;;;4.85;;
56319;SDS011;42226;42.382;23.748;2022-12-13T07:26:06;4.93;;;4.18;;
56319;SDS011;42226;42.382;23.748;2022-12-13T07:28:37;4.55;;;3.95;;
56319;SDS011;42226;42.382;23.748;2022-12-13T07:31:05;7.03;;;4.78;;
56319;SDS011;42226;42.382;23.748;2022-12-13T07:33:35;5.68;;;4.20;;
56319;SDS011;42226;42.382;23.748;2022-12-13T07:36:05;6.13;;;4.30;;
56319;SDS011;42226;42.382;23.748;2022-12-13T07:38:37;5.90;;;4.50;;
56319;SDS011;42226;42.382;23.748;2022-12-13T07:41:04;6.53;;;4.78;;
56319;SDS011;42226;42.382;23.748;2022-12-13T07:43:32;6.22;;;4.88;;
56319;SDS011;42226;42.382;23.748;2022-12-13T07:46:00;5.20;;;4.32;;
56319;SDS011;42226;42.382;23.748;2022-12-13T07:48:30;4.47;;;3.60;;
56319;SDS011;42226;42.382;23.748;2022-12-13T07:51:01;4.32;;;3.75;;
56319;SDS011;42226;42.382;23.748;2022-12-13T07:53:31;5.57;;;4.80;;
56319;SDS011;42226;42.382;23.748;2022-12-13T07:56:03;5.28;;;4.45;;
56319;SDS011;42226;42.382;23.748;2022-12-13T07:58:33;4.55;;;4.13;;
56319;SDS011;42226;42.382;23.748;2022-12-13T08:01:02;4.82;;;4.35;;
56319;SDS011;42226;42.382;23.748;2022-12-13T08:03:33;4.97;;;4.22;;
56319;SDS011;42226;42.382;23.748;2022-12-13T08:06:05;5.13;;;4.32;;
56319;SDS011;42226;42.382;23.748;2022-12-13T08:08:35;6.38;;;4.65;;
56319;SDS011;42226;42.382;23.748;2022-12-13T08:11:06;5.53;;;4.82;;
56319;SDS011;42226;42.382;23.748;2022-12-13T08:13:36;6.07;;;4.60;;
56319;SDS011;42226;42.382;23.748;2022-12-13T08:16:08;6.65;;;5.28;;
56319;SDS011;42226;42.382;23.748;2022-12-13T08:18:37;6.15;;;4.90;;
56319;SDS011;42226;42.382;23.748;2022-12-13T08:21:04;6.00;;;4.95;;
56319;SDS011;42226;42.382;23.748;2022-12-13T08:23:33;5.75;;;4.90;;
56319;SDS011;42226;42.382;23.748;2022-12-13T08:26:01;5.50;;;5.00;;
56319;SDS011;42226;42.382;23.748;2022-12-13T08:28:30;5.35;;;4.85;;
56319;SDS011;42226;42.382;23.748;2022-12-13T08:31:06;6.60;;;5.15;;
56319;SDS011;42226;42.382;23.748;2022-12-13T08:33:36;6.05;;;5.00;;
56319;SDS011;42226;42.382;23.748;2022-12-13T08:36:10;5.85;;;4.88;;
56319;SDS011;42226;42.382;23.748;2022-12-13T08:38:45;5.72;;;4.35;;
56319;SDS011;42226;42.382;23.748;2022-12-13T08:41:12;6.97;;;5.45;;
56319;SDS011;42226;42.382;23.748;2022-12-13T08:43:38;5.22;;;4.45;;
56319;SDS011;42226;42.382;23.748;2022-12-13T08:46:05;6.57;;;5.38;;
56319;SDS011;42226;42.382;23.748;2022-12-13T08:48:32;6.72;;;5.40;;
56319;SDS011;42226;42.382;23.748;2022-12-13T08:51:00;6.60;;;5.25;;
56319;SDS011;42226;42.382;23.748;2022-12-13T08:53:35;7.25;;;5.82;;
56319;SDS011;42226;42.382;23.748;2022-12-13T08:56:04;6.63;;;5.30;;
56319;SDS011;42226;42.382;23.748;2022-12-13T08:58:35;5.82;;;4.80;;
56319;SDS011;42226;42.382;23.748;2022-12-13T09:01:06;5.30;;;4.80;;
56319;SDS011;42226;42.382;23.748;2022-12-13T09:03:34;5.97;;;5.10;;
56319;SDS011;42226;42.382;23.748;2022-12-13T09:06:07;6.18;;;4.95;;
56319;SDS011;42226;42.382;23.748;2022-12-13T09:08:40;5.22;;;4.72;;
56319;SDS011;42226;42.382;23.748;2022-12-13T09:11:09;6.15;;;4.70;;
56319;SDS011;42226;42.382;23.748;2022-12-13T09:13:36;6.00;;;5.00;;
56319;SDS011;42226;42.382;23.748;2022-12-13T09:16:05;6.40;;;4.60;;
56319;SDS011;42226;42.382;23.748;2022-12-13T09:18:44;5.78;;;5.20;;
56319;SDS011;42226;42.382;23.748;2022-12-13T09:21:12;6.05;;;4.90;;
56319;SDS011;42226;42.382;23.748;2022-12-13T09:23:40;5.38;;;4.82;;
56319;SDS011;42226;42.382;23.748;2022-12-13T09:26:11;5.38;;;4.35;;
56319;SDS011;42226;42.382;23.748;2022-12-13T09:28:41;4.82;;;4.32;;
56319;SDS011;42226;42.382;23.748;2022-12-13T09:31:08;5.20;;;4.70;;
56319;SDS011;42226;42.382;23.748;2022-12-13T09:33:39;5.97;;;4.88;;
56319;SDS011;42226;42.382;23.748;2022-12-13T09:36:06;4.60;;;4.20;;
56319;SDS011;42226;42.382;23.748;2022-12-13T09:38:36;5.05;;;4.55;;
56319;SDS011;42226;42.382;23.748;2022-12-13T09:41:13;5.38;;;4.43;;
56319;SDS011;42226;42.382;23.748;2022-12-13T09:43:57;5.57;;;4.50;;
56319;SDS011;42226;42.382;23.748;2022-12-13T09:46:37;4.65;;;3.60;;
56319;SDS011;42226;42.382;23.748;2022-12-13T09:49:14;5.00;;;4.40;;
56319;SDS011;42226;42.382;23.748;2022-12-13T09:51:57;5.30;;;4.40;;
56319;SDS011;42226;42.382;23.748;2022-12-13T09:54:26;5.28;;;4.40;;
56319;SDS011;42226;42.382;23.748;2022-12-13T09:56:55;4.38;;;3.90;;
56319;SDS011;42226;42.382;23.748;2022-12-13T09:59:27;4.53;;;4.10;;
56319;SDS011;42226;42.382;23.748;2022-12-13T10:05:27;5.03;;;4.20;;
56319;SDS011;42226;42.382;23.748;2022-12-13T10:10:41;4.68;;;4.20;;
56319;SDS011;42226;42.382;23.748;2022-12-13T10:13:17;4.70;;;4.20;;
56319;SDS011;42226;42.382;23.748;2022-12-13T10:16:08;4.28;;;3.88;;
56319;SDS011;42226;42.382;23.748;2022-12-13T10:19:16;5.20;;;3.88;;
56319;SDS011;42226;42.382;23.748;2022-12-13T10:21:53;5.10;;;4.20;;
56319;SDS011;42226;42.382;23.748;2022-12-13T10:24:23;5.03;;;4.53;;
56319;SDS011;42226;42.382;23.748;2022-12-13T10:27:14;6.03;;;4.82;;
56319;SDS011;42226;42.382;23.748;2022-12-13T10:29:57;5.03;;;4.05;;
56319;SDS011;42226;42.382;23.748;2022-12-13T10:32:56;5.10;;;4.38;;
56319;SDS011;42226;42.382;23.748;2022-12-13T10:35:32;6.05;;;4.30;;
56319;SDS011;42226;42.382;23.748;2022-12-13T10:40:41;4.45;;;3.95;;
56319;SDS011;42226;42.382;23.748;2022-12-13T10:43:15;5.25;;;4.35;;
56319;SDS011;42226;42.382;23.748;2022-12-13T10:46:01;5.18;;;4.40;;
56319;SDS011;42226;42.382;23.748;2022-12-13T10:51:22;4.97;;;4.53;;
56319;SDS011;42226;42.382;23.748;2022-12-13T10:53:49;4.63;;;4.15;;
56319;SDS011;42226;42.382;23.748;2022-12-13T10:56:31;6.13;;;4.93;;
56319;SDS011;42226;42.382;23.748;2022-12-13T10:59:22;5.13;;;4.50;;
56319;SDS011;42226;42.382;23.748;2022-12-13T11:01:55;5.40;;;4.50;;
56319;SDS011;42226;42.382;23.748;2022-12-13T11:04:25;5.30;;;4.70;;
56319;SDS011;42226;42.382;23.748;2022-12-13T11:06:57;6.15;;;4.28;;
56319;SDS011;42226;42.382;23.748;2022-12-13T11:09:46;5.28;;;4.35;;
56319;SDS011;42226;42.382;23.748;2022-12-13T11:12:14;5.05;;;4.55;;
56319;SDS011;42226;42.382;23.748;2022-12-13T11:14:59;4.63;;;4.10;;
56319;SDS011;42226;42.382;23.748;2022-12-13T11:17:30;5.82;;;4.57;;
56319;SDS011;42226;42.382;23.748;2022-12-13T11:20:14;4.97;;;4.35;;
56319;SDS011;42226;42.382;23.748;2022-12-13T11:22:49;4.93;;;4.30;;
56319;SDS011;42226;42.382;23.748;2022-12-13T11:25:35;5.00;;;4.35;;
56319;SDS011;42226;42.382;23.748;2022-12-13T11:31:25;5.60;;;4.55;;
56319;SDS011;42226;42.382;23.748;2022-12-13T11:37:06;4.40;;;3.92;;
56319;SDS011;42226;42.382;23.748;2022-12-13T11:42:45;5.47;;;4.20;;
56319;SDS011;42226;42.382;23.748;2022-12-13T11:45:36;4.90;;;4.40;;
56319;SDS011;42226;42.382;23.748;2022-12-13T11:48:24;5.25;;;4.53;;
56319;SDS011;42226;42.382;23.748;2022-12-13T11:51:21;5.50;;;4.65;;
56319;SDS011;42226;42.382;23.748;2022-12-13T11:54:02;5.30;;;4.65;;
56319;SDS011;42226;42.382;23.748;2022-12-13T11:57:55;4.65;;;4.25;;
56319;SDS011;42226;42.382;23.748;2022-12-13T12:00:34;5.20;;;4.70;;
56319;SDS011;42226;42.382;23.748;2022-12-13T12:03:19;5.95;;;4.53;;
56319;SDS011;42226;42.382;23.748;2022-12-13T12:05:56;5.00;;;4.50;;
56319;SDS011;42226;42.382;23.748;2022-12-13T12:11:16;5.07;;;4.53;;
56319;SDS011;42226;42.382;23.748;2022-12-13T12:17:02;6.05;;;4.82;;
56319;SDS011;42226;42.382;23.748;2022-12-13T12:19:35;5.20;;;4.57;;
56319;SDS011;42226;42.382;23.748;2022-12-13T12:33:52;4.82;;;4.32;;
56319;SDS011;42226;42.382;23.748;2022-12-13T12:43:02;5.85;;;4.90;;
56319;SDS011;42226;42.382;23.748;2022-12-13T12:57:39;5.80;;;5.20;;
56319;SDS011;42226;42.382;23.748;2022-12-13T13:03:57;6.55;;;5.25;;
56319;SDS011;42226;42.382;23.748;2022-12-13T13:06:39;5.78;;;4.95;;
56319;SDS011;42226;42.382;23.748;2022-12-13T13:09:15;6.78;;;5.10;;
56319;SDS011;42226;42.382;23.748;2022-12-13T13:11:44;6.03;;;4.88;;
56319;SDS011;42226;42.382;23.748;2022-12-13T13:17:46;6.45;;;5.60;;
56319;SDS011;42226;42.382;23.748;2022-12-13T13:22:43;6.57;;;5.65;;
56319;SDS011;42226;42.382;23.748;2022-12-13T13:25:20;5.57;;;4.97;;
56319;SDS011;42226;42.382;23.748;2022-12-13T13:27:51;5.22;;;4.65;;
56319;SDS011;42226;42.382;23.748;2022-12-13T13:30:35;6.18;;;5.20;;
56319;SDS011;42226;42.382;23.748;2022-12-13T13:33:02;6.40;;;5.43;;
56319;SDS011;42226;42.382;23.748;2022-12-13T13:35:48;7.63;;;5.75;;
56319;SDS011;42226;42.382;23.748;2022-12-13T13:38:46;7.80;;;5.10;;
56319;SDS011;42226;42.382;23.748;2022-12-13T13:49:49;7.45;;;5.63;;
56319;SDS011;42226;42.382;23.748;2022-12-13T13:58:38;6.10;;;5.15;;
56319;SDS011;42226;42.382;23.748;2022-12-13T14:28:56;5.55;;;4.97;;
56319;SDS011;42226;42.382;23.748;2022-12-13T14:31:38;6.53;;;5.15;;
56319;SDS011;42226;42.382;23.748;2022-12-13T14:34:16;5.70;;;4.80;;
56319;SDS011;42226;42.382;23.748;2022-12-13T14:36:53;6.38;;;5.18;;
56319;SDS011;42226;42.382;23.748;2022-12-13T14:39:26;6.10;;;5.20;;
56319;SDS011;42226;42.382;23.748;2022-12-13T14:41:56;6.55;;;5.30;;
56319;SDS011;42226;42.382;23.748;2022-12-13T14:44:31;6.50;;;5.45;;
56319;SDS011;42226;42.382;23.748;2022-12-13T14:47:06;6.65;;;5.30;;
56319;SDS011;42226;42.382;23.748;2022-12-13T14:49:37;6.07;;;5.40;;
56319;SDS011;42226;42.382;23.748;2022-12-13T14:52:24;6.28;;;5.20;;
56319;SDS011;42226;42.382;23.748;2022-12-13T14:54:58;6.18;;;5.22;;
56319;SDS011;42226;42.382;23.748;2022-12-13T14:57:30;6.93;;;5.57;;
56319;SDS011;42226;42.382;23.748;2022-12-13T15:00:00;5.95;;;5.18;;
56319;SDS011;42226;42.382;23.748;2022-12-13T15:02:52;7.43;;;5.63;;
56319;SDS011;42226;42.382;23.748;2022-12-13T15:05:26;7.25;;;6.25;;
56319;SDS011;42226;42.382;23.748;2022-12-13T15:07:57;8.00;;;6.43;;
56319;SDS011;42226;42.382;23.748;2022-12-13T15:10:44;6.80;;;6.10;;
56319;SDS011;42226;42.382;23.748;2022-12-13T15:13:27;7.03;;;5.43;;
56319;SDS011;42226;42.382;23.748;2022-12-13T15:16:25;6.80;;;5.32;;
56319;SDS011;42226;42.382;23.748;2022-12-13T15:19:15;6.05;;;5.45;;
56319;SDS011;42226;42.382;23.748;2022-12-13T15:21:51;7.75;;;5.40;;
56319;SDS011;42226;42.382;23.748;2022-12-13T15:24:29;6.50;;;5.20;;
56319;SDS011;42226;42.382;23.748;2022-12-13T15:26:59;7.78;;;5.70;;
56319;SDS011;42226;42.382;23.748;2022-12-13T15:29:28;6.45;;;5.22;;
56319;SDS011;42226;42.382;23.748;2022-12-13T15:32:09;9.15;;;6.13;;
56319;SDS011;42226;42.382;23.748;2022-12-13T15:34:40;7.35;;;6.10;;
56319;SDS011;42226;42.382;23.748;2022-12-13T15:39:40;6.97;;;5.40;;
56319;SDS011;42226;42.382;23.748;2022-12-13T15:42:20;6.82;;;5.40;;
56319;SDS011;42226;42.382;23.748;2022-12-13T15:44:59;7.80;;;6.15;;
56319;SDS011;42226;42.382;23.748;2022-12-13T15:47:30;6.45;;;5.40;;
56319;SDS011;42226;42.382;23.748;2022-12-13T15:50:01;6.70;;;5.65;;
56319;SDS011;42226;42.382;23.748;2022-12-13T15:52:39;7.10;;;5.47;;
56319;SDS011;42226;42.382;23.748;2022-12-13T15:57:52;6.63;;;5.60;;
56319;SDS011;42226;42.382;23.748;2022-12-13T16:00:22;6.85;;;5.55;;
56319;SDS011;42226;42.382;23.748;2022-12-13T16:02:54;7.88;;;5.70;;
56319;SDS011;42226;42.382;23.748;2022-12-13T16:08:02;8.18;;;6.55;;
56319;SDS011;42226;42.382;23.748;2022-12-13T16:10:32;7.22;;;5.45;;
56319;SDS011;42226;42.382;23.748;2022-12-13T16:15:32;7.70;;;6.40;;
56319;SDS011;42226;42.382;23.748;2022-12-13T16:18:21;9.65;;;6.72;;
56319;SDS011;42226;42.382;23.748;2022-12-13T16:20:52;7.25;;;5.50;;
56319;SDS011;42226;42.382;23.748;2022-12-13T16:23:20;8.05;;;6.20;;
56319;SDS011;42226;42.382;23.748;2022-12-13T16:25:48;8.60;;;6.63;;
56319;SDS011;42226;42.382;23.748;2022-12-13T16:28:15;8.60;;;6.70;;
56319;SDS011;42226;42.382;23.748;2022-12-13T16:30:54;7.13;;;6.30;;
56319;SDS011;42226;42.382;23.748;2022-12-13T16:33:32;8.23;;;6.20;;
56319;SDS011;42226;42.382;23.748;2022-12-13T16:35:58;7.45;;;5.97;;
56319;SDS011;42226;42.382;23.748;2022-12-13T16:38:26;7.78;;;6.13;;
56319;SDS011;42226;42.382;23.748;2022-12-13T16:40:54;9.30;;;6.53;;
56319;SDS011;42226;42.382;23.748;2022-12-13T16:43:25;9.65;;;7.50;;
56319;SDS011;42226;42.382;23.748;2022-12-13T16:45:52;7.55;;;5.97;;
56319;SDS011;42226;42.382;23.748;2022-12-13T16:48:21;8.57;;;6.18;;
56319;SDS011;42226;42.382;23.748;2022-12-13T16:50:49;7.88;;;6.30;;
56319;SDS011;42226;42.382;23.748;2022-12-13T16:53:18;7.07;;;5.90;;
56319;SDS011;42226;42.382;23.748;2022-12-13T16:55:46;7.15;;;5.63;;
56319;SDS011;42226;42.382;23.748;2022-12-13T16:58:13;7.43;;;5.88;;
56319;SDS011;42226;42.382;23.748;2022-12-13T17:00:43;6.38;;;5.47;;
56319;SDS011;42226;42.382;23.748;2022-12-13T17:03:11;8.50;;;6.90;;
56319;SDS011;42226;42.382;23.748;2022-12-13T17:05:40;9.75;;;7.97;;
56319;SDS011;42226;42.382;23.748;2022-12-13T17:08:11;13.23;;;8.43;;
56319;SDS011;42226;42.382;23.748;2022-12-13T17:10:42;12.50;;;9.00;;
56319;SDS011;42226;42.382;23.748;2022-12-13T17:13:10;13.23;;;10.50;;
56319;SDS011;42226;42.382;23.748;2022-12-13T17:15:38;11.82;;;8.60;;
56319;SDS011;42226;42.382;23.748;2022-12-13T17:18:04;10.93;;;8.32;;
56319;SDS011;42226;42.382;23.748;2022-12-13T17:20:31;12.25;;;8.55;;
56319;SDS011;42226;42.382;23.748;2022-12-13T17:22:58;11.98;;;9.00;;
56319;SDS011;42226;42.382;23.748;2022-12-13T17:25:26;13.50;;;8.90;;
56319;SDS011;42226;42.382;23.748;2022-12-13T17:27:53;13.52;;;8.63;;
56319;SDS011;42226;42.382;23.748;2022-12-13T17:30:21;12.00;;;8.32;;
56319;SDS011;42226;42.382;23.748;2022-12-13T17:32:49;10.57;;;8.13;;
56319;SDS011;42226;42.382;23.748;2022-12-13T17:35:15;9.98;;;8.18;;
56319;SDS011;42226;42.382;23.748;2022-12-13T17:37:43;10.68;;;8.32;;
56319;SDS011;42226;42.382;23.748;2022-12-13T17:40:09;9.93;;;7.95;;